Terminal Aerodrome Forecast
Issued by NWS

Home | Current Version | Previous Version | Text Only | Print | Product List | Glossary On
Versions: 1 2 3 4 5 6 7 8 9 10 11 12 13 14 15 16 17
109
FTUS44 KTSA 312329
TAFXNA
TAF
KXNA 312329Z 0100/0124 VRB03KT P6SM OVC100
     FM010900 00000KT P6SM OVC025
     FM011200 00000KT P6SM VCSH OVC015 PROB30 0112/0118 4SM -SHRA
      OVC007
     FM011800 01005KT P6SM OVC040=

USA.gov is the U.S. government's official web portal to all federal, state and local government web resources and services.